Time;durP1;ratioP1;P1;durP2;ratioP2;P2;SDS_P1;SDS_P2;PMS_P1;PMS_P2;Temp;Humidity;BMP_temperature;BMP_pressure;BME280_temperature;BME280_humidity;BME280_pressure;Samples;Min_cycle;Max_cycle;Signal;HPM_P1;HPM_P2
2022/05/01 00:00:12;;;;;;;12.90;7.60;;;22.10;58.80;;;;;;5056513;28;20037;-67
2022/05/01 00:02:38;;;;;;;12.02;7.68;;;22.00;58.70;;;;;;5062157;28;20053;-67
2022/05/01 00:05:05;;;;;;;12.73;7.72;;;22.10;58.80;;;;;;5056833;28;20137;-67
2022/05/01 00:07:32;;;;;;;10.10;7.80;;;21.90;58.80;;;;;;5057877;28;20041;-67
2022/05/01 00:09:58;;;;;;;11.85;7.47;;;22.00;58.80;;;;;;5055683;28;20065;-67
2022/05/01 00:12:24;;;;;;;10.05;7.95;;;21.90;58.90;;;;;;5056516;28;20105;-67
2022/05/01 00:14:51;;;;;;;11.10;8.00;;;22.00;58.90;;;;;;5056346;28;20037;-66
2022/05/01 00:17:17;;;;;;;14.68;8.88;;;22.00;59.00;;;;;;5056970;28;20068;-67
2022/05/01 00:19:43;;;;;;;13.52;7.90;;;21.90;59.20;;;;;;5070074;28;20037;-67
2022/05/01 00:22:09;;;;;;;10.88;8.43;;;21.90;59.30;;;;;;5073490;28;20040;-67
2022/05/01 00:24:36;;;;;;;14.10;7.65;;;21.90;59.20;;;;;;5056452;28;20037;-67
2022/05/01 00:27:02;;;;;;;12.55;7.60;;;21.90;59.10;;;;;;5055439;28;20037;-67
2022/05/01 00:29:31;;;;;;;13.77;6.95;;;21.90;59.10;;;;;;5066497;28;20033;-67
2022/05/01 00:31:57;;;;;;;14.13;7.15;;;21.90;59.10;;;;;;5074995;28;20056;-67
2022/05/01 00:37:08;;;;;;;12.80;7.03;;;22.00;59.10;;;;;;5069196;28;20072;-67
2022/05/01 00:39:34;;;;;;;10.40;7.35;;;22.00;59.00;;;;;;5065255;28;20041;-67
2022/05/01 00:42:01;;;;;;;10.55;7.85;;;22.00;59.00;;;;;;5077952;28;20091;-67
2022/05/01 00:44:28;;;;;;;12.45;7.45;;;21.90;59.00;;;;;;5063231;28;20052;-67
2022/05/01 00:46:54;;;;;;;13.98;8.10;;;21.90;59.10;;;;;;5072926;28;20037;-67
2022/05/01 00:49:26;;;;;;;11.73;7.50;;;21.90;59.00;;;;;;5069892;28;20093;-67
2022/05/01 00:51:57;;;;;;;15.13;8.07;;;21.80;58.90;;;;;;5063359;28;20033;-67
2022/05/01 00:54:27;;;;;;;15.02;8.07;;;21.80;59.00;;;;;;5065498;28;20049;-67
2022/05/01 00:56:55;;;;;;;13.55;8.00;;;21.90;59.10;;;;;;5074530;28;20045;-67
2022/05/01 00:59:22;;;;;;;10.73;7.55;;;21.90;59.40;;;;;;5071507;28;20112;-67
2022/05/01 01:01:50;;;;;;;12.13;8.70;;;21.70;59.20;;;;;;5071619;28;20047;-67
2022/05/01 01:04:18;;;;;;;15.90;8.57;;;21.90;59.40;;;;;;5077180;28;20041;-67
2022/05/01 01:06:45;;;;;;;16.40;9.05;;;21.70;59.30;;;;;;5071345;28;20064;-67
2022/05/01 01:09:11;;;;;;;15.93;9.32;;;21.90;59.30;;;;;;5061909;28;20064;-67
2022/05/01 01:11:39;;;;;;;16.10;9.52;;;21.80;59.20;;;;;;5071006;28;20122;-67
2022/05/01 01:14:07;;;;;;;14.02;7.95;;;21.80;59.20;;;;;;5077619;28;20116;-67
2022/05/01 01:16:34;;;;;;;11.65;7.95;;;21.80;59.10;;;;;;5077515;28;20068;-67
2022/05/01 01:19:02;;;;;;;10.07;7.45;;;21.80;59.10;;;;;;5078922;28;20063;-67
2022/05/01 01:21:28;;;;;;;10.10;7.80;;;21.80;59.10;;;;;;5077433;28;20045;-67
2022/05/01 01:23:55;;;;;;;10.88;8.00;;;21.80;59.10;;;;;;5069279;28;20076;-67
2022/05/01 01:26:21;;;;;;;20.38;9.30;;;21.80;59.20;;;;;;5065401;28;20052;-67
2022/05/01 01:28:48;;;;;;;17.42;8.65;;;21.70;59.20;;;;;;5076877;28;20037;-66
2022/05/01 01:34:06;;;;;;;10.40;8.20;;;21.70;59.30;;;;;;5078724;28;20032;-67
2022/05/01 01:36:35;;;;;;;13.97;8.37;;;21.70;59.40;;;;;;5076242;28;20080;-67
2022/05/01 01:39:01;;;;;;;12.07;8.82;;;21.80;59.60;;;;;;5068548;28;20290;-67
2022/05/01 01:41:29;;;;;;;15.88;8.07;;;21.60;59.50;;;;;;5059191;28;20053;-66
2022/05/01 01:43:56;;;;;;;13.65;8.88;;;21.60;59.50;;;;;;5058844;28;20040;-67
2022/05/01 01:46:23;;;;;;;16.23;8.75;;;21.60;59.50;;;;;;5070940;28;20047;-67
2022/05/01 01:48:50;;;;;;;12.30;8.95;;;21.70;59.50;;;;;;5078798;28;20045;-67
2022/05/01 01:51:18;;;;;;;11.48;8.57;;;21.70;59.50;;;;;;5076500;28;20062;-67
2022/05/01 01:53:45;;;;;;;14.93;8.40;;;21.80;59.50;;;;;;5065363;28;20037;-68
2022/05/01 01:56:12;;;;;;;11.77;8.88;;;21.70;59.40;;;;;;5077490;28;20045;-67
2022/05/01 01:58:40;;;;;;;14.88;8.52;;;21.70;59.40;;;;;;5078899;28;20048;-67
2022/05/01 02:01:07;;;;;;;12.68;9.27;;;21.60;59.30;;;;;;5074657;28;20037;-67
2022/05/01 02:03:34;;;;;;;16.58;10.18;;;21.70;59.40;;;;;;5078987;28;20048;-67
2022/05/01 02:06:03;;;;;;;13.52;9.80;;;21.70;59.40;;;;;;5073886;28;20037;-65
2022/05/01 02:08:30;;;;;;;12.93;9.80;;;21.70;59.40;;;;;;5073385;28;20037;-66
2022/05/01 02:10:56;;;;;;;14.82;10.25;;;21.60;59.30;;;;;;5079228;28;20037;-67
2022/05/01 02:13:22;;;;;;;14.23;8.93;;;21.60;59.30;;;;;;5059012;28;20041;-67
2022/05/01 02:15:49;;;;;;;11.00;9.57;;;21.50;59.50;;;;;;5075958;28;20060;-67
2022/05/01 02:18:15;;;;;;;15.43;9.23;;;21.60;59.70;;;;;;5057861;28;20041;-67
2022/05/01 02:23:26;;;;;;;11.73;8.77;;;21.60;59.60;;;;;;5060557;28;20076;-67
2022/05/01 02:25:53;;;;;;;11.18;8.98;;;21.60;59.60;;;;;;5076079;28;20044;-67
2022/05/01 02:28:19;;;;;;;14.27;8.95;;;21.50;59.70;;;;;;5077231;28;20037;-68
2022/05/01 02:30:45;;;;;;;13.07;9.07;;;21.70;59.70;;;;;;5072043;28;20043;-67
2022/05/01 02:33:11;;;;;;;12.90;8.70;;;21.60;59.60;;;;;;5056706;28;20065;-67
2022/05/01 02:35:38;;;;;;;13.52;8.93;;;21.70;59.50;;;;;;5058050;28;20041;-66
2022/05/01 02:38:05;;;;;;;12.77;9.13;;;21.60;59.40;;;;;;5071574;28;20037;-67
2022/05/01 02:40:32;;;;;;;15.00;9.18;;;21.70;59.50;;;;;;5071717;28;20048;-68
2022/05/01 02:42:59;;;;;;;18.25;8.55;;;21.60;59.50;;;;;;5070191;28;20065;-67
2022/05/01 02:45:28;;;;;;;10.93;8.23;;;21.60;59.60;;;;;;5077902;28;20044;-66
2022/05/01 02:47:54;;;;;;;14.07;8.02;;;21.50;59.60;;;;;;5072736;28;20047;-67
2022/05/01 02:50:21;;;;;;;12.02;8.60;;;21.60;59.60;;;;;;5058015;28;20049;-67
2022/05/01 02:52:47;;;;;;;12.30;8.27;;;21.60;59.70;;;;;;5074125;28;20056;-67
2022/05/01 02:55:14;;;;;;;15.75;9.35;;;21.50;59.80;;;;;;5064106;28;20065;-67
2022/05/01 02:57:41;;;;;;;12.32;9.02;;;21.50;60.00;;;;;;5059189;28;20041;-67
2022/05/01 03:00:16;;;;;;;13.80;8.43;;;21.40;59.90;;;;;;5060689;28;20041;-67
2022/05/01 03:02:49;;;;;;;12.27;8.82;;;21.50;60.00;;;;;;5057772;28;20068;-67
2022/05/01 03:05:16;;;;;;;12.45;7.97;;;21.50;59.90;;;;;;5057725;28;20052;-67
2022/05/01 03:07:43;;;;;;;11.82;8.82;;;21.40;59.80;;;;;;5071095;28;20033;-67
2022/05/01 03:10:10;;;;;;;13.30;8.52;;;21.50;59.90;;;;;;5073676;28;20104;-67
2022/05/01 03:12:39;;;;;;;14.20;7.88;;;21.40;59.80;;;;;;5061337;28;20052;-67
2022/05/01 03:15:07;;;;;;;11.60;9.25;;;21.50;59.80;;;;;;5057635;28;20056;-67
2022/05/01 03:23:03;;;;;;;12.88;8.20;;;21.40;59.70;;;;;;5070773;28;20075;-67
2022/05/01 03:25:29;;;;;;;13.13;8.60;;;21.40;59.70;;;;;;5059848;28;20037;-67
2022/05/01 03:27:55;;;;;;;10.65;8.25;;;21.50;59.80;;;;;;5058753;28;20038;-67
2022/05/01 03:30:22;;;;;;;12.40;9.60;;;21.50;59.80;;;;;;5065344;28;20040;-67
2022/05/01 03:32:49;;;;;;;10.48;8.65;;;21.40;59.70;;;;;;5068054;28;20113;-67
2022/05/01 03:35:17;;;;;;;9.95;8.25;;;21.40;59.80;;;;;;5074252;28;20049;-67
2022/05/01 03:37:44;;;;;;;12.75;9.32;;;21.40;59.90;;;;;;5077114;28;20044;-67
2022/05/01 03:40:15;;;;;;;13.23;8.55;;;21.40;60.00;;;;;;5076916;28;20053;-67
2022/05/01 03:42:42;;;;;;;12.82;8.80;;;21.40;60.00;;;;;;5071883;28;20052;-66
2022/05/01 03:45:09;;;;;;;13.40;9.02;;;21.50;60.20;;;;;;5067987;28;20034;-67
2022/05/01 03:47:36;;;;;;;11.48;8.90;;;21.50;60.10;;;;;;5064293;28;20045;-67
2022/05/01 03:50:02;;;;;;;16.98;9.10;;;21.50;60.00;;;;;;5075467;28;20053;-67
2022/05/01 03:52:29;;;;;;;12.68;8.90;;;21.40;60.00;;;;;;5076174;28;20071;-67
2022/05/01 03:54:55;;;;;;;12.32;8.80;;;21.50;60.00;;;;;;5069268;28;20105;-66
2022/05/01 03:57:21;;;;;;;12.55;8.48;;;21.60;59.80;;;;;;5069116;28;20045;-67
2022/05/01 03:59:47;;;;;;;11.43;8.43;;;21.60;59.70;;;;;;5058791;28;20051;-67
2022/05/01 04:02:16;;;;;;;12.05;8.18;;;21.50;59.60;;;;;;5070875;28;20038;-67
2022/05/01 04:04:45;;;;;;;13.65;8.45;;;21.60;59.60;;;;;;5054860;28;20049;-67
2022/05/01 04:07:11;;;;;;;13.45;9.73;;;21.60;59.50;;;;;;5055851;28;20045;-67
2022/05/01 04:09:38;;;;;;;15.82;8.77;;;21.50;59.60;;;;;;5064588;28;20048;-67
2022/05/01 04:12:05;;;;;;;13.25;8.80;;;21.60;59.50;;;;;;5072583;28;20044;-67
2022/05/01 04:14:32;;;;;;;12.05;9.65;;;21.50;59.40;;;;;;5055841;28;20048;-67
2022/05/01 04:16:59;;;;;;;19.60;9.57;;;21.70;59.50;;;;;;5057387;28;20117;-67
2022/05/01 04:19:26;;;;;;;15.45;9.13;;;21.50;59.30;;;;;;5057948;28;20048;-67
2022/05/01 04:21:52;;;;;;;15.23;9.23;;;21.60;59.30;;;;;;5055757;28;20095;-67
2022/05/01 04:24:19;;;;;;;12.32;8.60;;;21.70;59.50;;;;;;5055990;28;20045;-67
2022/05/01 04:26:45;;;;;;;17.73;8.48;;;21.60;59.30;;;;;;5055317;28;20045;-67
2022/05/01 04:31:55;;;;;;;14.38;9.15;;;21.60;59.10;;;;;;5068488;28;20097;-67
2022/05/01 04:34:23;;;;;;;10.88;8.00;;;21.70;59.20;;;;;;5057742;28;20049;-66
2022/05/01 04:36:49;;;;;;;10.40;7.40;;;21.80;59.20;;;;;;5058595;28;20048;-67
2022/05/01 04:39:15;;;;;;;9.93;6.95;;;21.70;59.10;;;;;;5062627;28;20041;-67
2022/05/01 04:41:41;;;;;;;7.85;6.05;;;21.80;59.00;;;;;;5079607;28;20100;-67
2022/05/01 04:44:08;;;;;;;11.02;6.80;;;21.80;58.90;;;;;;5066709;28;20056;-67
2022/05/01 04:46:34;;;;;;;10.38;6.35;;;21.80;58.80;;;;;;5069226;28;20083;-67
2022/05/01 04:49:00;;;;;;;9.25;6.60;;;21.70;58.80;;;;;;5064705;28;20097;-67
2022/05/01 04:51:26;;;;;;;8.82;7.28;;;21.80;58.70;;;;;;5073033;28;20033;-66
2022/05/01 04:53:52;;;;;;;9.85;6.88;;;21.70;58.60;;;;;;5077446;28;20065;-67
2022/05/01 04:59:07;;;;;;;11.60;7.50;;;21.80;58.70;;;;;;5065989;28;20044;-67
2022/05/01 05:01:35;;;;;;;11.23;7.50;;;21.80;58.70;;;;;;5071061;28;20037;-67
2022/05/01 05:04:02;;;;;;;11.55;7.65;;;21.80;58.70;;;;;;5061907;28;20042;-67
2022/05/01 05:06:28;;;;;;;15.73;9.13;;;21.70;58.80;;;;;;5059526;28;20037;-66
2022/05/01 05:11:38;;;;;;;15.88;9.13;;;21.70;58.80;;;;;;5073615;28;20037;-67
2022/05/01 05:14:06;;;;;;;14.32;9.18;;;21.80;58.80;;;;;;5067598;28;20071;-67
2022/05/01 05:16:32;;;;;;;12.43;9.82;;;21.80;58.70;;;;;;5074552;28;20409;-67
2022/05/01 05:18:58;;;;;;;11.55;8.40;;;21.90;58.70;;;;;;5069327;28;20045;-67
2022/05/01 05:21:24;;;;;;;12.75;8.45;;;21.80;58.50;;;;;;5067895;28;20037;-67
2022/05/01 05:23:50;;;;;;;11.70;9.02;;;21.90;58.50;;;;;;5075867;28;20112;-67
2022/05/01 05:26:16;;;;;;;23.95;10.43;;;22.00;58.40;;;;;;5089340;28;20036;-67
2022/05/01 05:28:42;;;;;;;19.40;10.40;;;21.90;58.50;;;;;;5075482;28;20705;-67
2022/05/01 05:31:10;;;;;;;8.70;5.55;;;21.90;58.40;;;;;;5078720;28;20052;-67
2022/05/01 05:33:36;;;;;;;6.38;4.03;;;22.00;55.40;;;;;;5078635;28;20044;-67
2022/05/01 05:36:02;;;;;;;7.78;4.13;;;22.00;53.80;;;;;;5078864;28;20033;-68
2022/05/01 05:38:28;;;;;;;7.53;4.88;;;22.20;51.80;;;;;;5078307;28;20037;-68
2022/05/01 05:40:54;;;;;;;7.68;3.78;;;22.10;51.20;;;;;;5074215;28;20043;-68
2022/05/01 05:43:20;;;;;;;10.10;6.10;;;22.20;52.50;;;;;;5073145;28;20079;-67
2022/05/01 05:45:47;;;;;;;7.65;6.10;;;22.40;52.70;;;;;;5079403;28;20040;-67
2022/05/01 05:48:13;;;;;;;9.55;5.80;;;22.40;52.30;;;;;;5071754;28;20040;-67
2022/05/01 05:50:39;;;;;;;9.90;6.95;;;22.30;49.80;;;;;;5076731;28;20609;-67
2022/05/01 05:53:05;;;;;;;8.13;6.75;;;22.40;50.40;;;;;;5074253;28;20060;-68
2022/05/01 05:55:33;;;;;;;13.88;7.88;;;22.40;52.20;;;;;;5075900;28;20074;-67
2022/05/01 05:58:01;;;;;;;15.95;8.00;;;22.30;53.00;;;;;;5074948;28;20044;-67
2022/05/01 06:00:27;;;;;;;14.45;9.80;;;22.40;51.40;;;;;;5071743;28;20076;-68
2022/05/01 06:02:53;;;;;;;11.68;9.20;;;22.50;50.90;;;;;;5068154;28;20045;-68
2022/05/01 06:05:20;;;;;;;12.15;9.32;;;22.50;60.80;;;;;;5059663;28;20049;-67
2022/05/01 06:07:46;;;;;;;15.65;9.45;;;22.60;58.70;;;;;;5086401;28;20049;-67
2022/05/01 06:10:12;;;;;;;12.77;8.73;;;22.60;58.70;;;;;;5069040;28;20100;-67
2022/05/01 06:12:42;;;;;;;13.90;8.73;;;22.70;59.10;;;;;;5070804;28;20037;-68
2022/05/01 06:15:09;;;;;;;14.45;8.30;;;22.70;59.40;;;;;;5063150;28;20051;-68
2022/05/01 06:17:36;;;;;;;14.30;8.93;;;22.80;59.70;;;;;;5075967;28;20116;-68
2022/05/01 06:20:02;;;;;;;11.68;8.70;;;22.70;59.70;;;;;;5066438;28;20033;-67
2022/05/01 06:22:28;;;;;;;15.07;8.52;;;22.70;60.00;;;;;;5061456;28;20041;-67
2022/05/01 06:24:55;;;;;;;12.55;9.07;;;22.70;60.10;;;;;;5076085;28;20105;-67
2022/05/01 06:27:21;;;;;;;12.45;8.45;;;22.60;60.20;;;;;;5074277;28;20115;-68
2022/05/01 06:29:47;;;;;;;11.98;8.52;;;22.80;61.10;;;;;;5062357;28;20041;-68
2022/05/01 06:32:19;;;;;;;12.20;8.18;;;22.80;60.50;;;;;;5070944;28;20041;-67
2022/05/01 06:34:51;;;;;;;11.00;6.82;;;22.70;59.90;;;;;;5075942;28;20049;-68
2022/05/01 06:37:17;;;;;;;10.35;6.55;;;22.70;60.20;;;;;;5069550;28;20055;-67
2022/05/01 06:39:43;;;;;;;6.75;5.10;;;22.90;60.70;;;;;;5076156;28;20049;-66
2022/05/01 06:42:10;;;;;;;7.38;5.60;;;22.90;60.40;;;;;;5074920;28;20068;-68
2022/05/01 06:44:36;;;;;;;8.32;5.38;;;22.90;60.20;;;;;;5065940;28;20045;-67
2022/05/01 06:47:03;;;;;;;8.93;5.45;;;23.00;60.40;;;;;;5071985;28;20040;-68
2022/05/01 06:49:29;;;;;;;8.30;5.38;;;23.00;60.70;;;;;;5077441;28;20048;-68
2022/05/01 06:51:55;;;;;;;7.35;4.55;;;23.00;61.00;;;;;;5075773;28;20036;-68
2022/05/01 06:54:22;;;;;;;8.23;5.40;;;23.10;61.00;;;;;;5062370;28;20041;-66
2022/05/01 06:56:48;;;;;;;10.70;4.95;;;23.00;61.40;;;;;;5057851;28;20037;-66
2022/05/01 06:59:14;;;;;;;6.80;5.03;;;23.10;61.90;;;;;;5062802;28;20045;-67
2022/05/01 07:01:40;;;;;;;4.78;4.28;;;23.10;63.80;;;;;;5067414;28;20112;-67
2022/05/01 07:04:06;;;;;;;7.22;4.10;;;23.20;64.30;;;;;;5068958;28;20041;-67
2022/05/01 07:06:32;;;;;;;11.60;4.78;;;23.20;62.10;;;;;;5059566;28;20044;-67
2022/05/01 07:08:58;;;;;;;8.15;4.43;;;23.10;60.60;;;;;;5069840;28;20041;-66
2022/05/01 07:11:24;;;;;;;5.90;4.30;;;23.20;58.00;;;;;;5077079;28;20038;-66
2022/05/01 07:13:50;;;;;;;7.25;3.83;;;23.20;59.30;;;;;;5063729;28;20076;-68
2022/05/01 07:16:19;;;;;;;6.07;4.47;;;23.30;54.80;;;;;;5072620;28;20052;-70
2022/05/01 07:18:45;;;;;;;6.95;4.25;;;23.50;58.20;;;;;;5066901;28;20044;-69
2022/05/01 07:21:12;;;;;;;9.05;4.68;;;23.30;55.60;;;;;;5060857;28;20041;-70
2022/05/01 07:23:37;;;;;;;5.65;3.30;;;23.30;55.00;;;;;;5055505;28;20112;-69
2022/05/01 07:26:05;;;;;;;6.47;3.80;;;23.50;58.50;;;;;;5064275;28;20066;-71
2022/05/01 07:28:32;;;;;;;5.30;3.20;;;23.40;54.00;;;;;;5059677;28;20176;-69
2022/05/01 07:30:59;;;;;;;6.47;3.38;;;23.50;57.60;;;;;;5056376;28;20041;-71
2022/05/01 07:33:25;;;;;;;5.43;3.80;;;23.50;58.20;;;;;;5075073;28;20071;-71
2022/05/01 07:35:51;;;;;;;7.43;5.82;;;23.50;58.70;;;;;;5073789;28;20068;-71
2022/05/01 07:38:18;;;;;;;12.25;7.30;;;23.60;66.30;;;;;;5063033;28;20079;-71
2022/05/01 07:40:44;;;;;;;12.10;4.63;;;23.80;81.50;;;;;;5064548;28;20060;-72
2022/05/01 07:43:10;;;;;;;2.90;2.60;;;23.80;66.10;;;;;;5075011;28;20055;-70
2022/05/01 07:45:36;;;;;;;3.55;2.92;;;23.70;59.90;;;;;;5087462;28;20055;-70
2022/05/01 07:48:02;;;;;;;3.55;2.75;;;23.80;57.30;;;;;;5096394;28;20033;-70
2022/05/01 07:50:30;;;;;;;4.07;2.70;;;23.70;56.10;;;;;;5092336;28;20068;-70
2022/05/01 07:52:56;;;;;;;3.67;2.63;;;23.70;54.80;;;;;;5074724;28;20044;-70
2022/05/01 07:55:23;;;;;;;4.38;3.00;;;23.70;54.70;;;;;;5076725;28;20068;-71
2022/05/01 07:57:49;;;;;;;3.15;2.40;;;23.80;55.40;;;;;;5073851;28;20041;-72
2022/05/01 08:00:16;;;;;;;5.25;2.33;;;23.70;52.20;;;;;;5063352;28;20044;-71
2022/05/01 08:05:29;;;;;;;3.15;2.65;;;23.80;52.50;;;;;;5082565;28;20040;-71
2022/05/01 08:07:57;;;;;;;2.25;2.05;;;23.80;51.80;;;;;;5088688;28;20036;-72
2022/05/01 08:10:23;;;;;;;2.88;2.25;;;23.90;51.30;;;;;;5069800;28;20037;-71
2022/05/01 08:12:50;;;;;;;2.40;2.20;;;23.80;50.80;;;;;;5055389;28;20108;-72
2022/05/01 08:15:19;;;;;;;1.85;1.70;;;23.80;49.90;;;;;;5060428;28;20046;-72
2022/05/01 08:17:46;;;;;;;4.97;2.30;;;23.80;49.50;;;;;;5084835;28;20037;-72
2022/05/01 08:23:16;;;;;;;3.28;2.08;;;23.80;48.50;;;;;;5095504;28;20044;-72
2022/05/01 08:25:43;;;;;;;2.75;1.85;;;23.90;48.30;;;;;;5081936;28;20051;-72
2022/05/01 08:28:09;;;;;;;3.38;2.08;;;23.60;47.90;;;;;;5070884;28;20037;-72
2022/05/01 08:30:35;;;;;;;2.20;2.00;;;23.70;47.70;;;;;;5055859;28;20091;-72
2022/05/01 08:33:03;;;;;;;2.17;1.98;;;23.70;47.10;;;;;;5060559;28;20037;-73
2022/05/01 08:35:29;;;;;;;2.70;2.00;;;23.80;45.10;;;;;;5065631;28;20108;-72
2022/05/01 08:37:56;;;;;;;3.63;2.40;;;23.70;46.30;;;;;;5075232;28;20047;-71
2022/05/01 08:40:22;;;;;;;2.75;2.00;;;23.70;46.00;;;;;;5075395;28;20052;-70
2022/05/01 08:42:50;;;;;;;4.53;2.40;;;23.60;46.30;;;;;;5081056;28;20038;-70
2022/05/01 08:45:20;;;;;;;3.95;2.38;;;23.60;46.20;;;;;;5065392;28;20116;-69
2022/05/01 08:47:55;;;;;;;2.58;2.30;;;23.60;45.20;;;;;;5061877;28;20063;-70
2022/05/01 08:50:23;;;;;;;2.67;1.80;;;23.60;45.30;;;;;;5073802;28;20038;-69
2022/05/01 08:52:50;;;;;;;5.40;3.20;;;23.60;46.00;;;;;;5075573;28;20048;-71
2022/05/01 08:55:17;;;;;;;3.85;2.72;;;23.70;46.50;;;;;;5075259;28;20134;-71
2022/05/01 08:57:43;;;;;;;2.30;2.10;;;23.70;44.10;;;;;;5075488;28;20052;-71
2022/05/01 09:00:10;;;;;;;2.63;2.20;;;23.50;44.80;;;;;;5058365;28;20049;-69
2022/05/01 09:02:37;;;;;;;5.40;2.17;;;23.50;45.80;;;;;;5055323;28;20045;-71
2022/05/01 09:05:04;;;;;;;3.42;2.53;;;23.40;43.90;;;;;;5066281;28;20088;-71
2022/05/01 09:07:30;;;;;;;2.88;2.53;;;23.50;47.00;;;;;;5075266;28;20037;-70
2022/05/01 09:09:57;;;;;;;4.15;2.42;;;23.50;45.20;;;;;;5075238;28;20041;-72
2022/05/01 09:15:12;;;;;;;2.63;2.10;;;23.30;46.30;;;;;;5064095;28;20041;-70
2022/05/01 09:17:38;;;;;;;3.63;1.85;;;23.40;41.70;;;;;;5056021;28;20045;-70
2022/05/01 09:20:09;;;;;;;2.13;1.38;;;23.30;46.80;;;;;;5065037;28;20048;-69
2022/05/01 09:22:51;;;;;;;2.60;2.08;;;23.40;46.70;;;;;;5076663;28;20045;-70
2022/05/01 09:25:23;;;;;;;1.70;1.60;;;23.50;46.80;;;;;;5073187;28;20063;-68
2022/05/01 09:27:59;;;;;;;2.50;1.52;;;23.40;47.70;;;;;;5075126;28;20028;-70
2022/05/01 09:30:38;;;;;;;2.22;1.75;;;23.40;46.50;;;;;;5058372;28;20926;-70
2022/05/01 09:33:04;;;;;;;1.60;1.30;;;23.40;43.50;;;;;;5071563;28;20036;-69
2022/05/01 09:35:33;;;;;;;2.25;1.67;;;23.50;48.80;;;;;;5074078;28;20047;-71
2022/05/01 09:38:22;;;;;;;1.85;1.35;;;23.50;45.90;;;;;;5076266;28;20033;-70
2022/05/01 09:40:52;;;;;;;5.07;2.25;;;23.50;42.90;;;;;;5077498;28;20064;-71
2022/05/01 09:43:37;;;;;;;3.45;1.65;;;23.60;41.30;;;;;;5068509;28;20033;-70
2022/05/01 09:46:24;;;;;;;8.82;3.15;;;23.60;42.00;;;;;;5069415;28;20038;-71
2022/05/01 09:49:06;;;;;;;6.63;2.40;;;23.60;43.00;;;;;;5067013;28;20041;-69
2022/05/01 09:51:46;;;;;;;2.65;1.80;;;23.70;48.80;;;;;;5063910;28;20067;-72
2022/05/01 09:54:21;;;;;;;4.03;3.63;;;24.00;71.00;;;;;;5068194;28;20067;-71
2022/05/01 09:56:48;;;;;;;3.35;3.05;;;24.20;80.00;;;;;;5076785;28;20045;-73
2022/05/01 09:59:16;;;;;;;1.25;1.25;;;24.20;73.60;;;;;;5082047;28;20037;-72
2022/05/01 10:01:57;;;;;;;6.25;1.98;;;24.10;76.10;;;;;;5076973;28;20044;-72
2022/05/01 10:04:25;;;;;;;5.80;2.63;;;24.30;79.30;;;;;;5071669;28;20052;-71
2022/05/01 10:06:53;;;;;;;5.30;2.50;;;24.30;65.90;;;;;;5065868;28;20083;-70
2022/05/01 10:09:20;;;;;;;18.08;2.35;;;24.30;59.90;;;;;;5078087;28;20120;-72
2022/05/01 10:11:48;;;;;;;5.85;1.88;;;24.20;57.80;;;;;;5057984;28;20033;-69
2022/05/01 10:14:19;;;;;;;6.38;2.00;;;24.20;53.00;;;;;;5079454;28;20048;-71
2022/05/01 10:16:45;;;;;;;1.25;1.15;;;24.20;51.10;;;;;;5072240;28;20052;-72
2022/05/01 10:19:17;;;;;;;3.30;1.33;;;24.30;50.40;;;;;;5067888;28;20040;-70
2022/05/01 10:21:49;;;;;;;3.42;1.70;;;24.50;51.00;;;;;;5073148;28;20093;-70
2022/05/01 10:24:17;;;;;;;2.28;1.27;;;24.50;50.90;;;;;;5066671;28;20045;-68
2022/05/01 10:27:19;;;;;;;2.13;1.38;;;24.60;50.20;;;;;;5069208;28;20024;-69
2022/05/01 10:33:09;;;;;;;5.43;1.52;;;24.60;51.30;;;;;;5071404;28;20049;-71
2022/05/01 10:35:45;;;;;;;2.30;1.20;;;24.60;52.90;;;;;;5057823;28;20046;-71
2022/05/01 10:38:26;;;;;;;1.30;1.17;;;24.70;50.50;;;;;;5057972;28;20080;-72
2022/05/01 10:40:58;;;;;;;2.00;1.80;;;24.60;48.80;;;;;;5069822;28;20076;-71
2022/05/01 10:43:24;;;;;;;3.27;2.13;;;24.60;49.00;;;;;;5059034;28;20049;-70
2022/05/01 10:46:02;;;;;;;3.20;1.85;;;24.50;48.80;;;;;;5058762;28;20037;-70
2022/05/01 10:48:39;;;;;;;2.85;1.70;;;24.60;48.50;;;;;;5077411;28;20036;-71
2022/05/01 10:51:27;;;;;;;2.88;1.48;;;24.40;48.20;;;;;;5077618;28;20033;-70
2022/05/01 10:54:15;;;;;;;5.68;1.95;;;24.30;45.50;;;;;;5077409;28;20049;-68
2022/05/01 10:56:42;;;;;;;1.73;1.60;;;24.40;48.10;;;;;;5069994;28;20037;-69
2022/05/01 10:59:30;;;;;;;2.85;1.70;;;24.40;48.80;;;;;;5077103;28;20350;-69
2022/05/01 11:01:58;;;;;;;3.63;1.70;;;24.40;47.00;;;;;;5076956;28;20079;-67
2022/05/01 11:04:29;;;;;;;2.10;1.90;;;24.50;47.10;;;;;;5076991;28;20106;-66
2022/05/01 11:06:57;;;;;;;2.85;2.03;;;24.30;45.80;;;;;;5077086;28;20068;-65
2022/05/01 11:09:25;;;;;;;2.97;1.42;;;24.40;47.10;;;;;;5074340;28;20048;-65
2022/05/01 11:11:58;;;;;;;2.78;1.50;;;24.30;43.20;;;;;;5067527;28;20037;-66
2022/05/01 11:14:53;;;;;;;4.10;1.75;;;24.30;48.70;;;;;;5056991;28;20045;-67
2022/05/01 11:17:39;;;;;;;1.77;1.33;;;24.40;49.00;;;;;;5060632;28;20285;-66
2022/05/01 11:20:29;;;;;;;3.50;1.50;;;24.40;46.50;;;;;;5059752;28;20734;-66
2022/05/01 11:22:56;;;;;;;1.60;1.50;;;24.30;48.30;;;;;;5069696;28;20037;-66
2022/05/01 11:25:46;;;;;;;1.58;1.48;;;24.40;49.10;;;;;;5069734;28;20126;-66
2022/05/01 11:28:49;;;;;;;3.72;1.58;;;24.40;47.10;;;;;;5074886;28;20037;-67
2022/05/01 11:31:37;;;;;;;2.70;1.60;;;24.40;48.80;;;;;;5075652;28;20041;-67
2022/05/01 11:34:22;;;;;;;2.15;1.88;;;24.30;48.30;;;;;;5076766;28;20052;-67
2022/05/01 11:37:03;;;;;;;2.28;1.63;;;24.30;46.50;;;;;;5075857;28;20154;-66
2022/05/01 11:39:50;;;;;;;3.03;2.13;;;24.30;49.80;;;;;;5074894;28;20076;-65
2022/05/01 11:42:31;;;;;;;4.88;1.73;;;24.30;47.40;;;;;;5074989;28;20048;-67
2022/05/01 11:44:59;;;;;;;4.88;1.48;;;24.20;46.50;;;;;;5076153;28;20041;-66
2022/05/01 11:47:27;;;;;;;1.75;1.65;;;24.20;49.40;;;;;;5076260;28;20067;-67
2022/05/01 11:49:53;;;;;;;4.32;1.98;;;24.10;48.60;;;;;;5076250;28;20037;-67
2022/05/01 11:52:22;;;;;;;1.75;1.65;;;24.10;48.40;;;;;;5076446;28;20037;-67
2022/05/01 11:54:58;;;;;;;3.90;1.52;;;24.10;50.20;;;;;;5073178;28;20049;-67
2022/05/01 12:03:06;;;;;;;3.67;1.90;;;24.20;51.10;;;;;;5075997;28;20036;-67
2022/05/01 12:05:45;;;;;;;2.17;1.90;;;24.20;50.90;;;;;;5075479;28;20049;-68
2022/05/01 12:08:12;;;;;;;3.28;2.00;;;24.20;51.60;;;;;;5072970;28;20033;-68
2022/05/01 12:10:45;;;;;;;2.03;1.63;;;24.20;53.00;;;;;;5072205;28;20041;-68
2022/05/01 12:13:17;;;;;;;;;;;24.30;53.70;;;;;;5058238;28;20068;-68
2022/05/01 12:15:44;;;;;;;2.47;1.30;;;24.20;53.10;;;;;;5072502;28;19905;-68
2022/05/01 12:18:10;;;;;;;2.38;2.17;;;24.20;52.00;;;;;;5062566;28;20049;-68
2022/05/01 12:20:38;;;;;;;1.70;1.50;;;24.30;51.90;;;;;;5055232;28;20047;-68
2022/05/01 12:23:14;;;;;;;4.75;1.80;;;24.20;51.70;;;;;;5055482;28;20068;-68
2022/05/01 12:25:41;;;;;;;2.22;2.00;;;24.20;51.20;;;;;;5055651;28;20226;-68
2022/05/01 12:28:10;;;;;;;2.08;1.52;;;24.30;51.10;;;;;;5061035;28;20124;-68
2022/05/01 12:30:38;;;;;;;3.63;2.47;;;24.20;51.40;;;;;;5056065;28;20033;-68
2022/05/01 12:33:05;;;;;;;1.98;1.70;;;24.20;51.20;;;;;;5055838;28;20105;-68
2022/05/01 12:35:55;;;;;;;1.98;1.50;;;24.20;50.60;;;;;;5055818;28;20100;-68
2022/05/01 12:38:22;;;;;;;1.77;1.23;;;24.10;50.20;;;;;;5055790;28;20060;-68
2022/05/01 12:43:52;;;;;;;1.48;1.38;;;24.10;51.10;;;;;;5071620;28;20055;-68
2022/05/01 12:46:29;;;;;;;3.50;1.77;;;24.10;50.90;;;;;;5075685;28;20652;-68
2022/05/01 12:48:56;;;;;;;1.85;1.42;;;24.30;51.30;;;;;;5075705;28;20045;-68
2022/05/01 12:51:24;;;;;;;1.33;1.23;;;24.20;51.10;;;;;;5075825;28;20037;-68
2022/05/01 12:54:10;;;;;;;4.18;1.77;;;24.20;50.70;;;;;;5075512;28;20044;-68
2022/05/01 12:56:37;;;;;;;4.47;1.65;;;24.20;50.90;;;;;;5070096;28;20105;-68
2022/05/01 12:59:27;;;;;;;1.33;1.23;;;24.20;50.50;;;;;;5059635;28;20049;-68
2022/05/01 13:01:56;;;;;;;4.15;1.80;;;24.30;51.10;;;;;;5059590;28;20050;-68
2022/05/01 13:04:27;;;;;;;3.92;1.90;;;24.20;50.60;;;;;;5076755;28;20036;-68
2022/05/01 13:06:54;;;;;;;4.95;2.00;;;24.20;49.50;;;;;;5079156;28;20072;-69
2022/05/01 13:09:21;;;;;;;1.67;1.58;;;24.20;50.40;;;;;;5079621;28;20033;-68
2022/05/01 13:11:58;;;;;;;6.10;1.70;;;24.30;50.70;;;;;;5075479;28;20044;-68
2022/05/01 13:14:33;;;;;;;3.63;1.63;;;24.10;50.70;;;;;;5079409;28;20036;-68
2022/05/01 13:17:13;;;;;;;1.33;1.23;;;24.20;50.90;;;;;;5079022;28;20048;-68
2022/05/01 13:19:44;;;;;;;3.53;1.77;;;24.10;50.30;;;;;;5078013;28;20105;-68
2022/05/01 13:22:11;;;;;;;2.85;1.67;;;24.10;49.50;;;;;;5079266;28;20080;-68
2022/05/01 13:24:39;;;;;;;1.40;1.30;;;24.20;51.00;;;;;;5079243;28;20075;-68
2022/05/01 13:27:09;;;;;;;3.00;1.77;;;24.20;49.00;;;;;;5077263;28;20187;-68
2022/05/01 13:29:38;;;;;;;2.40;1.85;;;24.20;49.90;;;;;;5079286;28;20097;-68
2022/05/01 13:32:09;;;;;;;4.95;3.22;;;24.20;50.80;;;;;;5069003;28;20101;-68
2022/05/01 13:34:37;;;;;;;1.95;1.40;;;24.20;50.10;;;;;;5059049;28;20109;-68